Dunmore, West Virginia
Current Conditions -  °F | °C
As of 4:15 AM on Wednesday 22 Oct 2014 (Local Time) from KHSP Reporting Station
Overcast Overcast  
Wind Chill: 31°   Ceiling: 600
Heat Index: 39°   Visibility: 10mi
Dew Point: 37°   Wind: 13mph
Humidity: 94%   Direction: 310°NW
Pressure: 29.92"   Gusts: 20mph
Location:  38.36°N, 79.88°W
Report Text: KHSP 220815Z AUTO 31011G17KT 10SM OVC006 04/03 A2992 RMK AO2 T00370028
Loading
Personal Weather Stations






























Interactive Weather Map
Tropical Storm Tracking
New forecast layout! Learn more

10-Day Weather Forecast

Advertisements
Track Severe Weather on mobile